sensor_id;sensor_type;location;lat;lon;timestamp;temperature;humidity
22185;DHT22;11258;52.516;13.318;2023-04-03T00:01:16;2.20;99.90
22185;DHT22;11258;52.516;13.318;2023-04-03T00:03:42;2.20;99.90
22185;DHT22;11258;52.516;13.318;2023-04-03T00:06:09;2.20;99.90
22185;DHT22;11258;52.516;13.318;2023-04-03T00:08:37;2.30;99.90
22185;DHT22;11258;52.516;13.318;2023-04-03T00:11:04;2.30;99.90
22185;DHT22;11258;52.516;13.318;2023-04-03T00:13:30;2.30;99.90
22185;DHT22;11258;52.516;13.318;2023-04-03T00:15:56;2.30;99.90
22185;DHT22;11258;52.516;13.318;2023-04-03T00:18:21;2.20;99.90
22185;DHT22;11258;52.516;13.318;2023-04-03T00:20:47;2.20;99.90
22185;DHT22;11258;52.516;13.318;2023-04-03T00:23:14;2.20;99.90
22185;DHT22;11258;52.516;13.318;2023-04-03T00:25:40;2.20;99.90
22185;DHT22;11258;52.516;13.318;2023-04-03T00:28:06;2.20;99.90
22185;DHT22;11258;52.516;13.318;2023-04-03T00:30:32;2.20;99.90
22185;DHT22;11258;52.516;13.318;2023-04-03T00:32:58;2.20;99.90
22185;DHT22;11258;52.516;13.318;2023-04-03T00:35:24;2.30;99.90
22185;DHT22;11258;52.516;13.318;2023-04-03T00:37:54;2.20;99.90
22185;DHT22;11258;52.516;13.318;2023-04-03T00:40:22;2.20;99.90
22185;DHT22;11258;52.516;13.318;2023-04-03T00:42:50;2.20;99.90
22185;DHT22;11258;52.516;13.318;2023-04-03T00:45:44;2.20;99.90
22185;DHT22;11258;52.516;13.318;2023-04-03T00:48:15;2.10;99.90
22185;DHT22;11258;52.516;13.318;2023-04-03T00:50:42;2.10;99.90
22185;DHT22;11258;52.516;13.318;2023-04-03T00:53:12;2.20;99.90
22185;DHT22;11258;52.516;13.318;2023-04-03T00:55:39;2.20;99.90
22185;DHT22;11258;52.516;13.318;2023-04-03T00:58:06;2.10;99.90
22185;DHT22;11258;52.516;13.318;2023-04-03T01:00:32;2.20;99.90
22185;DHT22;11258;52.516;13.318;2023-04-03T01:02:59;2.10;99.90
22185;DHT22;11258;52.516;13.318;2023-04-03T01:05:25;2.10;99.90
22185;DHT22;11258;52.516;13.318;2023-04-03T01:07:52;2.10;99.90
22185;DHT22;11258;52.516;13.318;2023-04-03T01:10:18;2.10;99.90
22185;DHT22;11258;52.516;13.318;2023-04-03T01:12:48;2.10;99.90
22185;DHT22;11258;52.516;13.318;2023-04-03T01:15:21;2.10;99.90
22185;DHT22;11258;52.516;13.318;2023-04-03T01:25:29;2.10;99.90
22185;DHT22;11258;52.516;13.318;2023-04-03T01:27:55;2.10;99.90
22185;DHT22;11258;52.516;13.318;2023-04-03T01:30:25;2.10;99.90
22185;DHT22;11258;52.516;13.318;2023-04-03T01:32:53;2.00;99.90
22185;DHT22;11258;52.516;13.318;2023-04-03T01:35:18;2.00;99.90
22185;DHT22;11258;52.516;13.318;2023-04-03T01:37:44;2.00;99.90
22185;DHT22;11258;52.516;13.318;2023-04-03T01:40:10;2.00;99.90
22185;DHT22;11258;52.516;13.318;2023-04-03T01:42:36;2.00;99.90
22185;DHT22;11258;52.516;13.318;2023-04-03T01:45:02;2.00;99.90
22185;DHT22;11258;52.516;13.318;2023-04-03T01:47:28;2.00;99.90
22185;DHT22;11258;52.516;13.318;2023-04-03T01:49:53;2.10;99.90
22185;DHT22;11258;52.516;13.318;2023-04-03T01:52:19;2.00;99.90
22185;DHT22;11258;52.516;13.318;2023-04-03T01:54:44;2.10;99.90
22185;DHT22;11258;52.516;13.318;2023-04-03T01:57:10;2.00;99.90
22185;DHT22;11258;52.516;13.318;2023-04-03T01:59:36;1.90;99.90
22185;DHT22;11258;52.516;13.318;2023-04-03T02:02:01;2.00;99.90
22185;DHT22;11258;52.516;13.318;2023-04-03T02:04:27;1.90;99.90
22185;DHT22;11258;52.516;13.318;2023-04-03T02:06:52;1.80;99.90
22185;DHT22;11258;52.516;13.318;2023-04-03T02:09:18;1.80;99.90
22185;DHT22;11258;52.516;13.318;2023-04-03T02:11:44;1.80;99.90
22185;DHT22;11258;52.516;13.318;2023-04-03T02:14:09;1.80;99.90
22185;DHT22;11258;52.516;13.318;2023-04-03T02:16:35;1.80;99.90
22185;DHT22;11258;52.516;13.318;2023-04-03T02:19:01;1.90;99.90
22185;DHT22;11258;52.516;13.318;2023-04-03T02:21:26;1.80;99.90
22185;DHT22;11258;52.516;13.318;2023-04-03T02:23:53;1.80;99.90
22185;DHT22;11258;52.516;13.318;2023-04-03T02:26:19;1.90;99.90
22185;DHT22;11258;52.516;13.318;2023-04-03T02:28:45;1.80;99.90
22185;DHT22;11258;52.516;13.318;2023-04-03T02:31:11;1.90;99.90
22185;DHT22;11258;52.516;13.318;2023-04-03T02:33:36;1.90;99.90
22185;DHT22;11258;52.516;13.318;2023-04-03T02:36:04;1.90;99.90
22185;DHT22;11258;52.516;13.318;2023-04-03T02:38:30;1.90;99.90
22185;DHT22;11258;52.516;13.318;2023-04-03T02:41:03;1.90;99.90
22185;DHT22;11258;52.516;13.318;2023-04-03T02:43:29;1.80;99.90
22185;DHT22;11258;52.516;13.318;2023-04-03T02:45:55;1.80;99.90
22185;DHT22;11258;52.516;13.318;2023-04-03T02:48:21;1.80;99.90
22185;DHT22;11258;52.516;13.318;2023-04-03T02:50:47;1.80;99.90
22185;DHT22;11258;52.516;13.318;2023-04-03T02:53:12;1.80;99.90
22185;DHT22;11258;52.516;13.318;2023-04-03T02:55:38;1.80;99.90
22185;DHT22;11258;52.516;13.318;2023-04-03T02:58:04;1.80;99.90
22185;DHT22;11258;52.516;13.318;2023-04-03T03:00:29;1.70;99.90
22185;DHT22;11258;52.516;13.318;2023-04-03T03:02:55;1.70;99.90
22185;DHT22;11258;52.516;13.318;2023-04-03T03:05:21;1.70;99.90
22185;DHT22;11258;52.516;13.318;2023-04-03T03:07:47;1.70;99.90
22185;DHT22;11258;52.516;13.318;2023-04-03T03:10:13;1.60;99.90
22185;DHT22;11258;52.516;13.318;2023-04-03T03:12:39;1.60;99.90
22185;DHT22;11258;52.516;13.318;2023-04-03T03:15:06;1.60;99.90
22185;DHT22;11258;52.516;13.318;2023-04-03T03:17:32;1.60;99.90
22185;DHT22;11258;52.516;13.318;2023-04-03T03:19:57;1.60;99.90
22185;DHT22;11258;52.516;13.318;2023-04-03T03:22:23;1.50;99.90
22185;DHT22;11258;52.516;13.318;2023-04-03T03:24:49;1.50;99.90
22185;DHT22;11258;52.516;13.318;2023-04-03T03:27:14;1.50;99.90
22185;DHT22;11258;52.516;13.318;2023-04-03T03:29:41;1.40;99.90
22185;DHT22;11258;52.516;13.318;2023-04-03T03:32:07;1.40;99.90
22185;DHT22;11258;52.516;13.318;2023-04-03T03:34:33;1.40;99.90
22185;DHT22;11258;52.516;13.318;2023-04-03T03:36:59;1.40;99.90
22185;DHT22;11258;52.516;13.318;2023-04-03T03:39:25;1.30;99.90
22185;DHT22;11258;52.516;13.318;2023-04-03T03:41:50;1.40;99.90
22185;DHT22;11258;52.516;13.318;2023-04-03T03:44:19;1.30;99.90
22185;DHT22;11258;52.516;13.318;2023-04-03T03:46:45;1.30;99.90
22185;DHT22;11258;52.516;13.318;2023-04-03T03:49:10;1.30;99.90
22185;DHT22;11258;52.516;13.318;2023-04-03T03:51:37;1.30;99.90
22185;DHT22;11258;52.516;13.318;2023-04-03T03:54:03;1.30;99.90
22185;DHT22;11258;52.516;13.318;2023-04-03T03:56:29;1.30;99.90
22185;DHT22;11258;52.516;13.318;2023-04-03T03:58:54;1.20;99.90
22185;DHT22;11258;52.516;13.318;2023-04-03T04:01:22;1.30;99.90
22185;DHT22;11258;52.516;13.318;2023-04-03T04:03:48;1.30;99.90
22185;DHT22;11258;52.516;13.318;2023-04-03T04:06:13;1.30;99.90
22185;DHT22;11258;52.516;13.318;2023-04-03T04:08:40;1.20;99.90
22185;DHT22;11258;52.516;13.318;2023-04-03T04:11:06;1.30;99.90
22185;DHT22;11258;52.516;13.318;2023-04-03T04:13:31;1.20;99.90
22185;DHT22;11258;52.516;13.318;2023-04-03T04:15:57;1.20;99.90
22185;DHT22;11258;52.516;13.318;2023-04-03T04:18:22;1.20;99.90
22185;DHT22;11258;52.516;13.318;2023-04-03T04:20:49;1.20;99.90
22185;DHT22;11258;52.516;13.318;2023-04-03T04:23:16;1.20;99.90
22185;DHT22;11258;52.516;13.318;2023-04-03T04:25:47;1.20;99.90
22185;DHT22;11258;52.516;13.318;2023-04-03T04:28:14;1.10;99.90
22185;DHT22;11258;52.516;13.318;2023-04-03T04:30:40;1.10;99.90
22185;DHT22;11258;52.516;13.318;2023-04-03T04:33:06;1.10;99.90
22185;DHT22;11258;52.516;13.318;2023-04-03T04:35:32;1.10;99.90
22185;DHT22;11258;52.516;13.318;2023-04-03T04:37:58;1.10;99.90
22185;DHT22;11258;52.516;13.318;2023-04-03T04:40:23;1.00;99.90
22185;DHT22;11258;52.516;13.318;2023-04-03T04:42:50;1.10;99.90
22185;DHT22;11258;52.516;13.318;2023-04-03T04:45:15;1.10;99.90
22185;DHT22;11258;52.516;13.318;2023-04-03T04:47:41;1.20;99.90
22185;DHT22;11258;52.516;13.318;2023-04-03T04:50:07;1.20;99.90
22185;DHT22;11258;52.516;13.318;2023-04-03T04:52:33;1.20;99.90
22185;DHT22;11258;52.516;13.318;2023-04-03T04:54:59;1.20;99.90
22185;DHT22;11258;52.516;13.318;2023-04-03T04:57:25;1.40;99.90
22185;DHT22;11258;52.516;13.318;2023-04-03T04:59:51;1.40;99.90
22185;DHT22;11258;52.516;13.318;2023-04-03T05:02:17;1.40;99.90
22185;DHT22;11258;52.516;13.318;2023-04-03T05:04:43;1.80;99.90
22185;DHT22;11258;52.516;13.318;2023-04-03T05:07:08;2.50;99.90
22185;DHT22;11258;52.516;13.318;2023-04-03T05:09:34;3.00;99.90
22185;DHT22;11258;52.516;13.318;2023-04-03T05:12:00;2.80;99.90
22185;DHT22;11258;52.516;13.318;2023-04-03T05:14:25;2.60;99.90
22185;DHT22;11258;52.516;13.318;2023-04-03T05:16:51;2.50;99.90
22185;DHT22;11258;52.516;13.318;2023-04-03T05:19:20;2.20;99.90
22185;DHT22;11258;52.516;13.318;2023-04-03T05:21:46;2.20;99.90
22185;DHT22;11258;52.516;13.318;2023-04-03T05:24:13;2.20;99.90
22185;DHT22;11258;52.516;13.318;2023-04-03T05:26:39;2.20;99.90
22185;DHT22;11258;52.516;13.318;2023-04-03T05:29:04;2.60;99.90
22185;DHT22;11258;52.516;13.318;2023-04-03T05:31:30;3.80;99.90
22185;DHT22;11258;52.516;13.318;2023-04-03T05:33:56;4.70;99.90
22185;DHT22;11258;52.516;13.318;2023-04-03T05:36:22;5.90;99.90
22185;DHT22;11258;52.516;13.318;2023-04-03T05:38:48;6.70;99.90
22185;DHT22;11258;52.516;13.318;2023-04-03T05:41:15;7.10;99.90
22185;DHT22;11258;52.516;13.318;2023-04-03T05:43:40;7.30;99.90
22185;DHT22;11258;52.516;13.318;2023-04-03T05:46:14;8.00;99.90
22185;DHT22;11258;52.516;13.318;2023-04-03T05:48:40;8.40;99.90
22185;DHT22;11258;52.516;13.318;2023-04-03T05:51:07;8.70;99.90
22185;DHT22;11258;52.516;13.318;2023-04-03T05:53:38;9.30;99.90
22185;DHT22;11258;52.516;13.318;2023-04-03T05:56:04;9.70;99.90
22185;DHT22;11258;52.516;13.318;2023-04-03T05:58:29;9.80;99.90
22185;DHT22;11258;52.516;13.318;2023-04-03T06:00:55;9.90;99.90
22185;DHT22;11258;52.516;13.318;2023-04-03T06:03:21;10.60;99.90
22185;DHT22;11258;52.516;13.318;2023-04-03T06:05:47;9.90;99.90
22185;DHT22;11258;52.516;13.318;2023-04-03T06:08:13;10.20;99.90
22185;DHT22;11258;52.516;13.318;2023-04-03T06:10:40;10.60;99.90
22185;DHT22;11258;52.516;13.318;2023-04-03T06:13:06;10.90;99.90
22185;DHT22;11258;52.516;13.318;2023-04-03T06:15:32;11.10;99.90
22185;DHT22;11258;52.516;13.318;2023-04-03T06:17:59;11.70;99.90
22185;DHT22;11258;52.516;13.318;2023-04-03T06:20:25;11.30;99.90
22185;DHT22;11258;52.516;13.318;2023-04-03T06:22:51;11.30;99.90
22185;DHT22;11258;52.516;13.318;2023-04-03T06:25:16;10.60;99.90
22185;DHT22;11258;52.516;13.318;2023-04-03T06:27:44;10.30;99.90
22185;DHT22;11258;52.516;13.318;2023-04-03T06:30:10;10.70;99.90
22185;DHT22;11258;52.516;13.318;2023-04-03T06:32:37;11.60;99.90
22185;DHT22;11258;52.516;13.318;2023-04-03T06:35:04;10.30;99.90
22185;DHT22;11258;52.516;13.318;2023-04-03T06:37:30;10.60;99.90
22185;DHT22;11258;52.516;13.318;2023-04-03T06:39:56;11.30;99.90
22185;DHT22;11258;52.516;13.318;2023-04-03T06:42:22;10.80;99.90
22185;DHT22;11258;52.516;13.318;2023-04-03T06:44:48;10.80;99.90
22185;DHT22;11258;52.516;13.318;2023-04-03T06:47:14;11.40;99.90
22185;DHT22;11258;52.516;13.318;2023-04-03T06:49:40;11.20;99.90
22185;DHT22;11258;52.516;13.318;2023-04-03T06:52:07;10.80;99.90
22185;DHT22;11258;52.516;13.318;2023-04-03T06:54:33;11.30;99.90
22185;DHT22;11258;52.516;13.318;2023-04-03T06:56:59;11.70;99.90
22185;DHT22;11258;52.516;13.318;2023-04-03T06:59:25;11.70;99.90
22185;DHT22;11258;52.516;13.318;2023-04-03T07:01:51;11.60;99.90
22185;DHT22;11258;52.516;13.318;2023-04-03T07:04:17;12.00;99.90
22185;DHT22;11258;52.516;13.318;2023-04-03T07:06:44;10.80;99.90
22185;DHT22;11258;52.516;13.318;2023-04-03T07:09:10;10.70;99.90
22185;DHT22;11258;52.516;13.318;2023-04-03T07:11:36;10.70;99.90
22185;DHT22;11258;52.516;13.318;2023-04-03T07:14:02;10.60;99.90
22185;DHT22;11258;52.516;13.318;2023-04-03T07:16:28;12.00;99.90
22185;DHT22;11258;52.516;13.318;2023-04-03T07:18:56;10.50;99.90
22185;DHT22;11258;52.516;13.318;2023-04-03T07:21:23;11.40;99.90
22185;DHT22;11258;52.516;13.318;2023-04-03T07:23:49;12.10;99.90
22185;DHT22;11258;52.516;13.318;2023-04-03T07:26:14;11.70;99.90
22185;DHT22;11258;52.516;13.318;2023-04-03T07:28:40;11.10;99.90
22185;DHT22;11258;52.516;13.318;2023-04-03T07:31:10;11.70;99.90
22185;DHT22;11258;52.516;13.318;2023-04-03T07:33:38;10.40;99.90
22185;DHT22;11258;52.516;13.318;2023-04-03T07:36:04;7.60;99.90
22185;DHT22;11258;52.516;13.318;2023-04-03T07:38:32;7.20;99.90
22185;DHT22;11258;52.516;13.318;2023-04-03T07:40:58;8.80;99.90
22185;DHT22;11258;52.516;13.318;2023-04-03T07:43:24;8.40;99.90
22185;DHT22;11258;52.516;13.318;2023-04-03T07:45:52;8.40;99.90
22185;DHT22;11258;52.516;13.318;2023-04-03T07:48:21;10.80;99.90
22185;DHT22;11258;52.516;13.318;2023-04-03T07:50:47;9.80;99.90
22185;DHT22;11258;52.516;13.318;2023-04-03T07:53:13;9.50;99.90
22185;DHT22;11258;52.516;13.318;2023-04-03T07:55:39;9.90;99.90
22185;DHT22;11258;52.516;13.318;2023-04-03T07:58:14;11.40;99.90
22185;DHT22;11258;52.516;13.318;2023-04-03T08:00:40;10.30;99.90
22185;DHT22;11258;52.516;13.318;2023-04-03T08:03:07;9.10;99.90
22185;DHT22;11258;52.516;13.318;2023-04-03T08:05:37;8.20;99.90
22185;DHT22;11258;52.516;13.318;2023-04-03T08:08:04;7.70;99.90
22185;DHT22;11258;52.516;13.318;2023-04-03T08:10:30;7.10;99.90
22185;DHT22;11258;52.516;13.318;2023-04-03T08:12:56;6.60;99.90
22185;DHT22;11258;52.516;13.318;2023-04-03T08:15:22;6.60;99.90
22185;DHT22;11258;52.516;13.318;2023-04-03T08:17:48;6.90;99.90
22185;DHT22;11258;52.516;13.318;2023-04-03T08:20:13;7.30;99.90
22185;DHT22;11258;52.516;13.318;2023-04-03T08:22:39;8.00;99.90
22185;DHT22;11258;52.516;13.318;2023-04-03T08:25:05;8.20;99.90
22185;DHT22;11258;52.516;13.318;2023-04-03T08:27:31;8.50;99.90
22185;DHT22;11258;52.516;13.318;2023-04-03T08:29:57;7.90;99.90
22185;DHT22;11258;52.516;13.318;2023-04-03T08:32:23;7.90;99.90
22185;DHT22;11258;52.516;13.318;2023-04-03T08:34:48;7.80;99.90
22185;DHT22;11258;52.516;13.318;2023-04-03T08:37:14;7.30;99.90
22185;DHT22;11258;52.516;13.318;2023-04-03T08:39:42;6.80;99.90
22185;DHT22;11258;52.516;13.318;2023-04-03T08:45:12;6.10;99.90
22185;DHT22;11258;52.516;13.318;2023-04-03T08:48:03;5.80;99.90
22185;DHT22;11258;52.516;13.318;2023-04-03T08:50:35;5.90;99.90
22185;DHT22;11258;52.516;13.318;2023-04-03T08:53:03;5.80;99.90
22185;DHT22;11258;52.516;13.318;2023-04-03T08:55:37;5.90;99.90
22185;DHT22;11258;52.516;13.318;2023-04-03T08:58:24;5.90;99.90
22185;DHT22;11258;52.516;13.318;2023-04-03T09:01:27;5.90;99.90
22185;DHT22;11258;52.516;13.318;2023-04-03T09:03:54;6.10;99.90
22185;DHT22;11258;52.516;13.318;2023-04-03T09:06:22;6.10;99.90
22185;DHT22;11258;52.516;13.318;2023-04-03T09:12:12;6.20;99.90
22185;DHT22;11258;52.516;13.318;2023-04-03T09:14:36;6.10;99.90
22185;DHT22;11258;52.516;13.318;2023-04-03T09:17:09;6.00;99.90
22185;DHT22;11258;52.516;13.318;2023-04-03T09:19:56;6.50;99.90
22185;DHT22;11258;52.516;13.318;2023-04-03T09:22:27;6.80;99.90
22185;DHT22;11258;52.516;13.318;2023-04-03T09:25:05;6.30;99.90
22185;DHT22;11258;52.516;13.318;2023-04-03T09:27:35;6.20;99.90
22185;DHT22;11258;52.516;13.318;2023-04-03T09:30:02;6.20;99.90
22185;DHT22;11258;52.516;13.318;2023-04-03T09:32:31;6.10;99.90
22185;DHT22;11258;52.516;13.318;2023-04-03T09:35:22;6.20;99.90
22185;DHT22;11258;52.516;13.318;2023-04-03T09:37:51;5.90;99.90
22185;DHT22;11258;52.516;13.318;2023-04-03T09:42:58;5.90;99.90
22185;DHT22;11258;52.516;13.318;2023-04-03T09:45:31;5.80;99.90
22185;DHT22;11258;52.516;13.318;2023-04-03T09:48:13;5.40;99.90
22185;DHT22;11258;52.516;13.318;2023-04-03T09:53:36;5.90;99.90
22185;DHT22;11258;52.516;13.318;2023-04-03T09:56:18;6.50;99.90
22185;DHT22;11258;52.516;13.318;2023-04-03T10:01:31;7.00;99.90
22185;DHT22;11258;52.516;13.318;2023-04-03T10:06:46;6.80;99.90
22185;DHT22;11258;52.516;13.318;2023-04-03T10:09:27;6.40;99.90
22185;DHT22;11258;52.516;13.318;2023-04-03T10:14:38;6.10;99.90
22185;DHT22;11258;52.516;13.318;2023-04-03T10:17:42;5.90;99.90
22185;DHT22;11258;52.516;13.318;2023-04-03T10:20:32;6.40;99.90
22185;DHT22;11258;52.516;13.318;2023-04-03T10:28:23;6.00;99.90
22185;DHT22;11258;52.516;13.318;2023-04-03T10:39:12;6.50;99.90
22185;DHT22;11258;52.516;13.318;2023-04-03T10:44:35;6.80;99.90
22185;DHT22;11258;52.516;13.318;2023-04-03T10:47:22;6.60;99.90
22185;DHT22;11258;52.516;13.318;2023-04-03T10:50:08;6.50;99.90
22185;DHT22;11258;52.516;13.318;2023-04-03T10:55:14;6.30;99.90
22185;DHT22;11258;52.516;13.318;2023-04-03T10:57:48;6.40;99.90
22185;DHT22;11258;52.516;13.318;2023-04-03T11:00:17;6.10;99.90
22185;DHT22;11258;52.516;13.318;2023-04-03T11:03:00;6.00;99.90
22185;DHT22;11258;52.516;13.318;2023-04-03T11:08:09;6.50;99.90
22185;DHT22;11258;52.516;13.318;2023-04-03T11:10:42;6.80;99.90
22185;DHT22;11258;52.516;13.318;2023-04-03T11:13:28;7.00;99.90
22185;DHT22;11258;52.516;13.318;2023-04-03T11:15:57;6.20;99.90
22185;DHT22;11258;52.516;13.318;2023-04-03T11:21:10;6.20;99.90
22185;DHT22;11258;52.516;13.318;2023-04-03T11:23:40;6.40;99.90
22185;DHT22;11258;52.516;13.318;2023-04-03T11:26:12;6.60;99.90
22185;DHT22;11258;52.516;13.318;2023-04-03T11:28:39;6.60;99.90
22185;DHT22;11258;52.516;13.318;2023-04-03T11:36:30;6.80;99.90
22185;DHT22;11258;52.516;13.318;2023-04-03T11:39:01;6.80;99.90
22185;DHT22;11258;52.516;13.318;2023-04-03T11:41:33;6.90;99.90
22185;DHT22;11258;52.516;13.318;2023-04-03T11:46:51;6.80;99.90
22185;DHT22;11258;52.516;13.318;2023-04-03T11:58:02;7.00;99.90
22185;DHT22;11258;52.516;13.318;2023-04-03T12:13:38;6.80;99.90
22185;DHT22;11258;52.516;13.318;2023-04-03T12:16:06;6.90;99.90
22185;DHT22;11258;52.516;13.318;2023-04-03T12:18:53;6.50;99.90
22185;DHT22;11258;52.516;13.318;2023-04-03T12:48:58;7.00;99.90
22185;DHT22;11258;52.516;13.318;2023-04-03T12:51:37;7.00;99.90
22185;DHT22;11258;52.516;13.318;2023-04-03T12:54:31;6.80;99.90
22185;DHT22;11258;52.516;13.318;2023-04-03T12:57:19;6.90;99.90
22185;DHT22;11258;52.516;13.318;2023-04-03T12:59:45;6.60;99.90
22185;DHT22;11258;52.516;13.318;2023-04-03T13:02:27;6.80;99.90
22185;DHT22;11258;52.516;13.318;2023-04-03T13:04:55;7.00;99.90
22185;DHT22;11258;52.516;13.318;2023-04-03T13:07:32;7.10;99.90
22185;DHT22;11258;52.516;13.318;2023-04-03T13:12:29;7.00;99.90
22185;DHT22;11258;52.516;13.318;2023-04-03T13:15:11;7.00;99.90
22185;DHT22;11258;52.516;13.318;2023-04-03T13:17:42;7.10;99.90
22185;DHT22;11258;52.516;13.318;2023-04-03T13:20:34;6.80;99.90
22185;DHT22;11258;52.516;13.318;2023-04-03T13:23:07;6.90;99.90
22185;DHT22;11258;52.516;13.318;2023-04-03T13:25:36;6.80;99.90
22185;DHT22;11258;52.516;13.318;2023-04-03T13:28:05;6.60;99.90
22185;DHT22;11258;52.516;13.318;2023-04-03T13:30:34;6.60;99.90
22185;DHT22;11258;52.516;13.318;2023-04-03T13:33:04;6.40;99.90
22185;DHT22;11258;52.516;13.318;2023-04-03T13:35:39;6.40;99.90
22185;DHT22;11258;52.516;13.318;2023-04-03T13:38:23;6.40;99.90
22185;DHT22;11258;52.516;13.318;2023-04-03T13:40:55;6.50;99.90
22185;DHT22;11258;52.516;13.318;2023-04-03T13:43:24;6.60;99.90
22185;DHT22;11258;52.516;13.318;2023-04-03T13:48:44;6.60;99.90
22185;DHT22;11258;52.516;13.318;2023-04-03T13:56:39;6.60;99.90
22185;DHT22;11258;52.516;13.318;2023-04-03T14:01:43;6.60;99.90
22185;DHT22;11258;52.516;13.318;2023-04-03T14:06:41;6.70;99.90
22185;DHT22;11258;52.516;13.318;2023-04-03T14:09:07;6.80;99.90
22185;DHT22;11258;52.516;13.318;2023-04-03T14:11:33;6.70;99.90
22185;DHT22;11258;52.516;13.318;2023-04-03T14:14:02;6.80;99.90
22185;DHT22;11258;52.516;13.318;2023-04-03T14:16:33;6.70;99.90
22185;DHT22;11258;52.516;13.318;2023-04-03T14:19:02;6.80;99.90
22185;DHT22;11258;52.516;13.318;2023-04-03T14:21:28;6.90;99.90
22185;DHT22;11258;52.516;13.318;2023-04-03T14:23:54;7.00;99.90
22185;DHT22;11258;52.516;13.318;2023-04-03T14:26:23;6.70;99.90
22185;DHT22;11258;52.516;13.318;2023-04-03T14:28:51;6.90;99.90
22185;DHT22;11258;52.516;13.318;2023-04-03T14:31:18;6.70;99.90
22185;DHT22;11258;52.516;13.318;2023-04-03T14:33:44;6.70;99.90
22185;DHT22;11258;52.516;13.318;2023-04-03T14:36:16;6.70;99.90
22185;DHT22;11258;52.516;13.318;2023-04-03T14:38:43;6.50;99.90
22185;DHT22;11258;52.516;13.318;2023-04-03T14:41:15;6.60;99.90
22185;DHT22;11258;52.516;13.318;2023-04-03T14:43:41;6.70;99.90
22185;DHT22;11258;52.516;13.318;2023-04-03T14:46:31;6.80;99.90
22185;DHT22;11258;52.516;13.318;2023-04-03T14:48:57;6.90;99.90
22185;DHT22;11258;52.516;13.318;2023-04-03T14:51:23;6.90;99.90
22185;DHT22;11258;52.516;13.318;2023-04-03T14:53:49;7.00;99.90
22185;DHT22;11258;52.516;13.318;2023-04-03T14:56:24;6.90;99.90
22185;DHT22;11258;52.516;13.318;2023-04-03T14:58:58;7.00;99.90
22185;DHT22;11258;52.516;13.318;2023-04-03T15:01:24;6.90;99.90
22185;DHT22;11258;52.516;13.318;2023-04-03T15:03:50;6.70;99.90
22185;DHT22;11258;52.516;13.318;2023-04-03T15:06:15;6.60;99.90
22185;DHT22;11258;52.516;13.318;2023-04-03T15:08:42;6.60;99.90
22185;DHT22;11258;52.516;13.318;2023-04-03T15:11:10;6.60;99.90
22185;DHT22;11258;52.516;13.318;2023-04-03T15:13:36;6.60;99.90
22185;DHT22;11258;52.516;13.318;2023-04-03T15:16:02;6.40;99.90
22185;DHT22;11258;52.516;13.318;2023-04-03T15:18:33;6.30;99.90
22185;DHT22;11258;52.516;13.318;2023-04-03T15:21:00;6.20;99.90
22185;DHT22;11258;52.516;13.318;2023-04-03T15:23:27;6.00;99.90
22185;DHT22;11258;52.516;13.318;2023-04-03T15:25:54;6.00;99.90
22185;DHT22;11258;52.516;13.318;2023-04-03T15:28:39;6.20;99.90
22185;DHT22;11258;52.516;13.318;2023-04-03T15:31:06;6.10;99.90
22185;DHT22;11258;52.516;13.318;2023-04-03T15:33:33;6.00;99.90
22185;DHT22;11258;52.516;13.318;2023-04-03T15:35:59;6.00;99.90
22185;DHT22;11258;52.516;13.318;2023-04-03T15:38:25;5.90;99.90
22185;DHT22;11258;52.516;13.318;2023-04-03T15:40:50;5.90;99.90
22185;DHT22;11258;52.516;13.318;2023-04-03T15:43:16;5.90;99.90
22185;DHT22;11258;52.516;13.318;2023-04-03T15:45:43;5.90;99.90
22185;DHT22;11258;52.516;13.318;2023-04-03T15:48:10;5.90;99.90
22185;DHT22;11258;52.516;13.318;2023-04-03T15:50:36;5.80;99.90
22185;DHT22;11258;52.516;13.318;2023-04-03T15:53:02;5.80;99.90
22185;DHT22;11258;52.516;13.318;2023-04-03T15:55:30;5.90;99.90
22185;DHT22;11258;52.516;13.318;2023-04-03T15:57:57;5.90;99.90
22185;DHT22;11258;52.516;13.318;2023-04-03T16:00:23;6.00;99.90
22185;DHT22;11258;52.516;13.318;2023-04-03T16:02:53;5.90;99.90
22185;DHT22;11258;52.516;13.318;2023-04-03T16:05:20;6.10;99.90
22185;DHT22;11258;52.516;13.318;2023-04-03T16:07:46;6.20;99.90
22185;DHT22;11258;52.516;13.318;2023-04-03T16:10:14;6.20;99.90
22185;DHT22;11258;52.516;13.318;2023-04-03T16:12:40;6.10;99.90
22185;DHT22;11258;52.516;13.318;2023-04-03T16:15:06;5.90;99.90
22185;DHT22;11258;52.516;13.318;2023-04-03T16:17:33;5.90;99.90
22185;DHT22;11258;52.516;13.318;2023-04-03T16:20:01;5.80;99.90
22185;DHT22;11258;52.516;13.318;2023-04-03T16:22:28;5.80;99.90
22185;DHT22;11258;52.516;13.318;2023-04-03T16:24:54;5.80;99.90
22185;DHT22;11258;52.516;13.318;2023-04-03T16:27:21;5.90;99.90
22185;DHT22;11258;52.516;13.318;2023-04-03T16:29:47;6.00;99.90
22185;DHT22;11258;52.516;13.318;2023-04-03T16:32:14;6.00;99.90
22185;DHT22;11258;52.516;13.318;2023-04-03T16:34:40;6.00;99.90
22185;DHT22;11258;52.516;13.318;2023-04-03T16:37:06;6.00;99.90
22185;DHT22;11258;52.516;13.318;2023-04-03T16:39:35;6.00;99.90
22185;DHT22;11258;52.516;13.318;2023-04-03T16:42:01;6.00;99.90
22185;DHT22;11258;52.516;13.318;2023-04-03T16:44:27;6.10;99.90
22185;DHT22;11258;52.516;13.318;2023-04-03T16:46:52;6.00;99.90
22185;DHT22;11258;52.516;13.318;2023-04-03T16:49:18;6.00;99.90
22185;DHT22;11258;52.516;13.318;2023-04-03T16:51:44;6.00;99.90
22185;DHT22;11258;52.516;13.318;2023-04-03T16:54:11;6.00;99.90
22185;DHT22;11258;52.516;13.318;2023-04-03T16:56:38;5.90;99.90
22185;DHT22;11258;52.516;13.318;2023-04-03T16:59:04;5.80;99.90
22185;DHT22;11258;52.516;13.318;2023-04-03T17:01:30;5.70;99.90
22185;DHT22;11258;52.516;13.318;2023-04-03T17:03:56;5.60;99.90
22185;DHT22;11258;52.516;13.318;2023-04-03T17:06:22;5.50;99.90
22185;DHT22;11258;52.516;13.318;2023-04-03T17:08:49;5.50;99.90
22185;DHT22;11258;52.516;13.318;2023-04-03T17:11:16;5.50;99.90
22185;DHT22;11258;52.516;13.318;2023-04-03T17:13:41;5.30;99.90
22185;DHT22;11258;52.516;13.318;2023-04-03T17:16:10;5.40;99.90
22185;DHT22;11258;52.516;13.318;2023-04-03T17:18:38;5.40;99.90
22185;DHT22;11258;52.516;13.318;2023-04-03T17:21:05;5.50;99.90
22185;DHT22;11258;52.516;13.318;2023-04-03T17:23:31;5.40;99.90
22185;DHT22;11258;52.516;13.318;2023-04-03T17:26:00;5.30;99.90
22185;DHT22;11258;52.516;13.318;2023-04-03T17:28:25;5.30;99.90
22185;DHT22;11258;52.516;13.318;2023-04-03T17:31:00;5.30;99.90
22185;DHT22;11258;52.516;13.318;2023-04-03T17:33:27;5.40;99.90
22185;DHT22;11258;52.516;13.318;2023-04-03T17:36:00;5.30;99.90
22185;DHT22;11258;52.516;13.318;2023-04-03T17:38:32;5.40;99.90
22185;DHT22;11258;52.516;13.318;2023-04-03T17:41:00;5.40;99.90
22185;DHT22;11258;52.516;13.318;2023-04-03T17:43:27;5.40;99.90